Weather at Khartoum International Airport

Public forecast

Using degrees Celsius for public forecast. Weather courtesy of forecast.io.

Current aviation weather report (METAR) for Khartoum International Airport

Retrieved 2021/06/15 15:00 UTC (2 minutes ago):

HSSK 151500Z 19013KT CAVOK 38/14 Q1007 TEMPO 9999 SCT040SCT 140

Closest aviation forecast (TAF) to Khartoum International Airport

Retrieved 2021/06/15 12:00 UTC (3 hours ago):

TAF HSSK 151100Z 1512/1618 16012G22KT CAVOK TEMPO 1513/1519 6000 SCT040 SCT140